Terminal Aerodrome Forecast
Issued by NWS

Home | Current Version | Previous Version | Text Only | Print | Product List | Glossary On
Versions: 1 2 3 4 5 6 7 8 9 10 11 12 13 14
000
FTUS41 KBTV 191120
TAFMSS
TAF
KMSS 191120Z 1912/2012 05006KT P6SM SKC
     FM200100 06007KT P6SM BKN250
     FM200900 07009KT P6SM OVC120=

USA.gov is the U.S. government's official web portal to all federal, state and local government web resources and services.